createdAt,value
2023-06-22T00:00:13.120Z,96419.91
2023-06-22T00:00:45.764Z,96417.56
2023-06-22T00:01:18.632Z,96419.91
2023-06-22T00:01:50.710Z,96414.88
2023-06-22T00:02:22.867Z,96415.25
2023-06-22T00:02:56.588Z,96411.41
2023-06-22T00:03:28.628Z,96416.81
2023-06-22T00:04:00.610Z,96412.94
2023-06-22T00:04:32.538Z,96414.47
2023-06-22T00:05:04.614Z,96422.22
2023-06-22T00:05:36.530Z,96421.41
2023-06-22T00:06:08.411Z,96409.84
2023-06-22T00:06:40.476Z,96418.34
2023-06-22T00:07:12.366Z,96416.03
2023-06-22T00:07:46.290Z,96416.41
2023-06-22T00:08:18.976Z,96410.63
2023-06-22T00:08:50.832Z,96412.19
2023-06-22T00:09:22.734Z,96405.59
2023-06-22T00:09:54.618Z,96407.53
2023-06-22T00:10:26.866Z,96409.44
2023-06-22T00:10:59.478Z,96412.16
2023-06-22T00:11:33.975Z,96417.59
2023-06-22T00:12:07.592Z,96412.16
2023-06-22T00:12:41.401Z,96408.69
2023-06-22T00:13:14.362Z,96405.59
2023-06-22T00:13:46.562Z,96408.28
2023-06-22T00:14:18.403Z,96406.75
2023-06-22T00:14:50.518Z,96408.69
2023-06-22T00:15:22.529Z,96411.41
2023-06-22T00:15:54.489Z,96413.69
2023-06-22T00:16:26.639Z,96422.19
2023-06-22T00:17:00.052Z,96417.19
2023-06-22T00:17:32.213Z,96425.66
2023-06-22T00:18:04.520Z,96418.34
2023-06-22T00:18:36.607Z,96423.38
2023-06-22T00:19:08.556Z,96428.38
2023-06-22T00:19:41.591Z,96424.16
2023-06-22T00:20:15.620Z,96420.28
2023-06-22T00:20:48.293Z,96425.69
2023-06-22T00:21:23.148Z,96421.03
2023-06-22T00:21:54.985Z,96420.28
2023-06-22T00:22:29.500Z,96423.75
2023-06-22T00:23:01.751Z,96422.22
2023-06-22T00:23:35.544Z,96422.59
2023-06-22T00:24:08.578Z,96421.41
2023-06-22T00:24:40.489Z,96416.81
2023-06-22T00:25:12.633Z,96414.47
2023-06-22T00:25:44.562Z,96416.81
2023-06-22T00:26:16.426Z,96424.53
2023-06-22T00:26:51.231Z,96418.75
2023-06-22T00:27:23.305Z,96419.50
2023-06-22T00:27:55.458Z,96424.16
2023-06-22T00:28:27.593Z,96422.19
2023-06-22T00:28:59.663Z,96423.00
2023-06-22T00:29:32.472Z,96424.94
2023-06-22T00:30:04.985Z,96427.22
2023-06-22T00:30:37.669Z,96427.22
2023-06-22T00:31:09.839Z,96433.03
2023-06-22T00:31:41.924Z,96429.94
2023-06-22T00:32:17.100Z,96431.47
2023-06-22T00:32:53.018Z,96429.53
2023-06-22T00:33:25.432Z,96428.00
2023-06-22T00:33:57.487Z,96425.66
2023-06-22T00:34:29.495Z,96436.09
2023-06-22T00:35:01.473Z,96430.31
2023-06-22T00:35:35.618Z,96427.22
2023-06-22T00:36:08.863Z,96431.84
2023-06-22T00:36:42.124Z,96429.16
2023-06-22T00:37:14.038Z,96430.31
2023-06-22T00:37:46.453Z,96428.75
2023-06-22T00:38:19.791Z,96430.31
2023-06-22T00:38:53.361Z,96432.22
2023-06-22T00:39:25.535Z,96426.81
2023-06-22T00:39:57.920Z,96429.16
2023-06-22T00:40:30.936Z,96421.81
2023-06-22T00:41:03.488Z,96425.28
2023-06-22T00:41:35.703Z,96422.22
2023-06-22T00:42:10.196Z,96422.19
2023-06-22T00:42:42.403Z,96428.38
2023-06-22T00:43:15.323Z,96422.97
2023-06-22T00:43:47.253Z,96426.84
2023-06-22T00:44:19.025Z,96427.22
2023-06-22T00:44:51.481Z,96427.97
2023-06-22T00:45:24.332Z,96430.69
2023-06-22T00:45:57.820Z,96427.59
2023-06-22T00:46:30.578Z,96425.25
2023-06-22T00:47:03.275Z,96424.47
2023-06-22T00:47:36.613Z,96413.66
2023-06-22T00:48:12.391Z,96421.41
2023-06-22T00:48:45.867Z,96420.63
2023-06-22T00:49:17.726Z,96422.19
2023-06-22T00:49:53.894Z,96424.09
2023-06-22T00:50:34.555Z,96417.16
2023-06-22T00:51:08.093Z,96422.94
2023-06-22T00:51:40.732Z,96422.16
2023-06-22T00:52:21.785Z,96416.00
2023-06-22T00:52:58.046Z,96423.69
2023-06-22T00:53:36.423Z,96414.81
2023-06-22T00:54:09.136Z,96415.16
2023-06-22T00:54:46.284Z,96414.00
2023-06-22T00:55:19.046Z,96412.88
2023-06-22T00:55:52.736Z,96413.25
2023-06-22T00:56:25.590Z,96408.22
2023-06-22T00:56:58.718Z,96414.03
2023-06-22T00:57:31.638Z,96416.38
2023-06-22T00:58:11.228Z,96413.63
2023-06-22T00:58:43.137Z,96409.41
2023-06-22T00:59:18.568Z,96405.53
2023-06-22T00:59:52.036Z,96409.00
2023-06-22T01:00:26.340Z,96405.53
2023-06-22T01:01:01.905Z,96410.13
2023-06-22T01:01:35.432Z,96405.53
2023-06-22T01:02:07.373Z,96408.22
2023-06-22T01:02:40.877Z,96405.16
2023-06-22T01:03:13.475Z,96397.78
2023-06-22T01:03:47.270Z,96397.41
2023-06-22T01:04:19.667Z,96388.53
2023-06-22T01:04:52.449Z,96393.94
2023-06-22T01:05:24.360Z,96399.34
2023-06-22T01:06:10.105Z,96397.78
2023-06-22T01:07:13.997Z,96406.25
2023-06-22T01:08:16.274Z,96410.47
2023-06-22T01:08:55.132Z,96411.66
2023-06-22T01:09:36.688Z,96412.03
2023-06-22T01:10:41.199Z,96420.13
2023-06-22T01:11:22.501Z,96418.97
2023-06-22T01:12:01.321Z,96425.91
2023-06-22T01:12:39.638Z,96412.03
2023-06-22T01:13:17.502Z,96423.59
2023-06-22T01:14:16.368Z,96413.53
2023-06-22T01:15:01.908Z,96419.72
2023-06-22T01:15:52.364Z,96415.84
2023-06-22T01:16:27.681Z,96424.38
2023-06-22T01:17:02.341Z,96426.69
2023-06-22T01:17:34.305Z,96423.97
2023-06-22T01:18:10.564Z,96424.38
2023-06-22T01:18:43.883Z,96416.28
2023-06-22T01:19:44.978Z,96420.47
2023-06-22T01:20:17.869Z,96422.41
2023-06-22T01:20:51.326Z,96416.66
2023-06-22T01:21:25.831Z,96429.00
2023-06-22T01:21:59.387Z,96422.84
2023-06-22T01:22:34.142Z,96417.03
2023-06-22T01:23:23.931Z,96425.91
2023-06-22T01:24:19.966Z,96428.97
2023-06-22T01:25:13.770Z,96426.66
2023-06-22T01:26:00.564Z,96426.66
2023-06-22T01:26:43.136Z,96434.75
2023-06-22T01:27:34.156Z,96438.19
2023-06-22T01:28:42.899Z,96435.13
2023-06-22T01:29:17.619Z,96437.41
2023-06-22T01:29:53.625Z,96437.41
2023-06-22T01:30:28.017Z,96437.41
2023-06-22T01:31:06.897Z,96434.34
2023-06-22T01:31:42.617Z,96433.59
2023-06-22T01:32:15.925Z,96431.63
2023-06-22T01:32:50.644Z,96442.06
2023-06-22T01:33:23.630Z,96442.44
2023-06-22T01:34:01.746Z,96447.47
2023-06-22T01:34:36.174Z,96442.84
2023-06-22T01:35:11.189Z,96443.97
2023-06-22T01:35:45.276Z,96449.41
2023-06-22T01:36:18.989Z,96446.72
2023-06-22T01:36:53.474Z,96453.22
2023-06-22T01:37:26.164Z,96449.00
2023-06-22T01:37:58.420Z,96452.84
2023-06-22T01:38:31.681Z,96457.47
2023-06-22T01:39:08.369Z,96456.34
2023-06-22T01:39:41.823Z,96456.31
2023-06-22T01:40:14.836Z,96460.53
2023-06-22T01:40:47.104Z,96462.09
2023-06-22T01:41:20.496Z,96463.66
2023-06-22T01:41:54.643Z,96456.34
2023-06-22T01:42:27.075Z,96458.63
2023-06-22T01:43:02.036Z,96451.31
2023-06-22T01:43:34.098Z,96454.38
2023-06-22T01:44:08.442Z,96457.84
2023-06-22T01:44:41.424Z,96451.31
2023-06-22T01:45:15.916Z,96453.59
2023-06-22T01:45:47.943Z,96459.41
2023-06-22T01:46:21.756Z,96454.38
2023-06-22T01:46:54.769Z,96459.41
2023-06-22T01:47:28.811Z,96460.94
2023-06-22T01:48:02.087Z,96454.75
2023-06-22T01:48:35.380Z,96460.16
2023-06-22T01:49:08.317Z,96462.47
2023-06-22T01:49:42.171Z,96459.38
2023-06-22T01:50:14.599Z,96460.13
2023-06-22T01:50:49.396Z,96460.13
2023-06-22T01:51:21.569Z,96462.84
2023-06-22T01:51:55.400Z,96467.09
2023-06-22T01:52:27.459Z,96459.34
2023-06-22T01:52:59.333Z,96471.31
2023-06-22T01:53:32.039Z,96458.97
2023-06-22T01:54:06.918Z,96467.09
2023-06-22T01:54:40.847Z,96463.63
2023-06-22T01:55:13.474Z,96469.00
2023-06-22T01:55:45.811Z,96458.97
2023-06-22T01:56:18.333Z,96458.91
2023-06-22T01:56:51.190Z,96460.06
2023-06-22T01:57:23.461Z,96463.94
2023-06-22T01:57:55.415Z,96460.09
2023-06-22T01:58:30.102Z,96458.97
2023-06-22T01:59:04.479Z,96467.44
2023-06-22T01:59:58.834Z,96461.22
2023-06-22T02:00:37.147Z,96456.97
2023-06-22T02:01:17.066Z,96456.19
2023-06-22T02:01:58.870Z,96453.56
2023-06-22T02:02:51.833Z,96458.91
2023-06-22T02:03:32.821Z,96449.66
2023-06-22T02:04:13.028Z,96448.09
2023-06-22T02:05:08.396Z,96454.25
2023-06-22T02:05:47.093Z,96455.78
2023-06-22T02:06:28.710Z,96451.56
2023-06-22T02:07:02.720Z,96453.09
2023-06-22T02:07:42.992Z,96458.09
2023-06-22T02:08:22.067Z,96452.31
2023-06-22T02:09:02.389Z,96454.63
2023-06-22T02:09:36.632Z,96451.94
2023-06-22T02:10:13.278Z,96457.72
2023-06-22T02:10:47.629Z,96457.72
2023-06-22T02:11:21.677Z,96454.28
2023-06-22T02:11:57.664Z,96450.38
2023-06-22T02:12:31.744Z,96451.94
2023-06-22T02:13:07.263Z,96450.03
2023-06-22T02:13:44.099Z,96448.50
2023-06-22T02:14:18.975Z,96450.41
2023-06-22T02:14:53.157Z,96440.38
2023-06-22T02:15:25.828Z,96439.19
2023-06-22T02:16:01.937Z,96440.34
2023-06-22T02:16:34.172Z,96439.97
2023-06-22T02:17:08.825Z,96441.88
2023-06-22T02:17:45.844Z,96438.00
2023-06-22T02:18:21.269Z,96449.22
2023-06-22T02:18:53.168Z,96439.56
2023-06-22T02:19:25.838Z,96444.94
2023-06-22T02:20:00.186Z,96443.41
2023-06-22T02:20:32.197Z,96446.88
2023-06-22T02:21:04.241Z,96451.06
2023-06-22T02:21:35.998Z,96441.06
2023-06-22T02:22:07.797Z,96443.03
2023-06-22T02:22:39.601Z,96442.22
2023-06-22T02:23:11.461Z,96443.75
2023-06-22T02:23:43.264Z,96443.38
2023-06-22T02:24:15.102Z,96440.31
2023-06-22T02:24:46.870Z,96443.41
2023-06-22T02:25:19.979Z,96436.91
2023-06-22T02:25:51.808Z,96443.81
2023-06-22T02:26:26.935Z,96435.28
2023-06-22T02:27:00.917Z,96438.00
2023-06-22T02:27:32.667Z,96436.09
2023-06-22T02:28:05.133Z,96434.88
2023-06-22T02:28:36.898Z,96435.69
2023-06-22T02:29:08.980Z,96438.00
2023-06-22T02:29:40.713Z,96442.59
2023-06-22T02:30:13.217Z,96438.75
2023-06-22T02:30:45.039Z,96442.59
2023-06-22T02:31:17.141Z,96443.75
2023-06-22T02:31:49.060Z,96444.13
2023-06-22T02:32:20.870Z,96440.25
2023-06-22T02:32:59.609Z,96443.72
2023-06-22T02:33:31.576Z,96437.53
2023-06-22T02:34:03.457Z,96435.22
2023-06-22T02:34:37.776Z,96443.34
2023-06-22T02:35:10.719Z,96439.06
2023-06-22T02:35:46.594Z,96438.72
2023-06-22T02:36:23.446Z,96438.28
2023-06-22T02:36:55.374Z,96437.13
2023-06-22T02:37:30.725Z,96441.38
2023-06-22T02:38:04.480Z,96444.09
2023-06-22T02:38:37.255Z,96446.38
2023-06-22T02:39:09.099Z,96442.94
2023-06-22T02:39:42.663Z,96448.34
2023-06-22T02:40:14.558Z,96444.84
2023-06-22T02:40:46.892Z,96441.41
2023-06-22T02:41:21.712Z,96441.78
2023-06-22T02:41:55.678Z,96444.09
2023-06-22T02:42:28.407Z,96437.09
2023-06-22T02:43:03.150Z,96440.97
2023-06-22T02:43:36.003Z,96441.72
2023-06-22T02:44:07.761Z,96444.81
2023-06-22T02:44:39.610Z,96446.00
2023-06-22T02:45:11.481Z,96447.91
2023-06-22T02:45:43.760Z,96450.97
2023-06-22T02:46:16.837Z,96442.09
2023-06-22T02:46:49.679Z,96442.50
2023-06-22T02:47:22.828Z,96449.44
2023-06-22T02:47:56.981Z,96444.38
2023-06-22T02:48:29.226Z,96450.16
2023-06-22T02:49:01.188Z,96447.88
2023-06-22T02:49:33.098Z,96449.41
2023-06-22T02:50:05.982Z,96452.91
2023-06-22T02:50:39.768Z,96455.63
2023-06-22T02:51:12.101Z,96449.03
2023-06-22T02:51:49.379Z,96449.41
2023-06-22T02:52:24.423Z,96447.06
2023-06-22T02:52:56.200Z,96442.47
2023-06-22T02:53:28.401Z,96451.31
2023-06-22T02:54:00.214Z,96453.19
2023-06-22T02:54:34.900Z,96453.63
2023-06-22T02:55:08.529Z,96454.03
2023-06-22T02:55:40.968Z,96451.75
2023-06-22T02:56:14.104Z,96450.16
2023-06-22T02:56:46.102Z,96454.78
2023-06-22T02:57:17.889Z,96459.03
2023-06-22T02:57:53.830Z,96446.69
2023-06-22T02:58:26.208Z,96454.44
2023-06-22T02:59:02.194Z,96450.16
2023-06-22T02:59:41.859Z,96453.19
2023-06-22T03:00:19.121Z,96451.63
2023-06-22T03:00:54.156Z,96452.03
2023-06-22T03:01:28.842Z,96457.84
2023-06-22T03:02:01.195Z,96454.34
2023-06-22T03:02:36.289Z,96455.13
2023-06-22T03:03:08.266Z,96452.03
2023-06-22T03:03:40.449Z,96455.88
2023-06-22T03:04:37.379Z,96444.69
2023-06-22T03:05:14.359Z,96452.03
2023-06-22T03:05:46.745Z,96448.16
2023-06-22T03:06:24.638Z,96450.84
2023-06-22T03:07:02.041Z,96448.50
2023-06-22T03:07:35.225Z,96447.75
2023-06-22T03:08:08.852Z,96447.75
2023-06-22T03:08:42.473Z,96447.34
2023-06-22T03:09:17.645Z,96447.75
2023-06-22T03:09:49.509Z,96454.25
2023-06-22T03:10:22.429Z,96449.66
2023-06-22T03:10:54.246Z,96450.47
2023-06-22T03:11:26.305Z,96453.53
2023-06-22T03:11:58.456Z,96450.09
2023-06-22T03:12:39.193Z,96453.94
2023-06-22T03:13:12.936Z,96460.88
2023-06-22T03:13:45.006Z,96457.78
2023-06-22T03:14:17.407Z,96455.84
2023-06-22T03:14:50.324Z,96455.44
2023-06-22T03:15:23.423Z,96452.00
2023-06-22T03:15:57.151Z,96460.09
2023-06-22T03:16:30.269Z,96452.38
2023-06-22T03:17:04.377Z,96459.34
2023-06-22T03:17:39.684Z,96456.66
2023-06-22T03:18:13.195Z,96453.91
2023-06-22T03:18:45.948Z,96455.06
2023-06-22T03:19:20.578Z,96456.66
2023-06-22T03:19:52.628Z,96461.25
2023-06-22T03:20:28.046Z,96463.53
2023-06-22T03:21:03.501Z,96456.22
2023-06-22T03:21:39.982Z,96458.13
2023-06-22T03:22:14.504Z,96450.84
2023-06-22T03:22:47.298Z,96460.47
2023-06-22T03:23:19.404Z,96457.78
2023-06-22T03:23:51.453Z,96463.22
2023-06-22T03:24:24.233Z,96457.78
2023-06-22T03:24:56.037Z,96458.94
2023-06-22T03:25:28.284Z,96462.03
2023-06-22T03:26:06.175Z,96460.06
2023-06-22T03:26:38.340Z,96452.00
2023-06-22T03:27:11.579Z,96457.38
2023-06-22T03:27:45.162Z,96451.56
2023-06-22T03:28:17.233Z,96455.44
2023-06-22T03:28:49.388Z,96451.97
2023-06-22T03:29:22.483Z,96449.22
2023-06-22T03:29:55.227Z,96456.19
2023-06-22T03:30:28.513Z,96455.06
2023-06-22T03:31:00.553Z,96451.63
2023-06-22T03:31:35.288Z,96450.47
2023-06-22T03:32:07.997Z,96446.19
2023-06-22T03:32:39.992Z,96445.06
2023-06-22T03:33:12.327Z,96442.75
2023-06-22T03:33:44.200Z,96453.16
2023-06-22T03:34:15.947Z,96440.03
2023-06-22T03:34:48.283Z,96445.47
2023-06-22T03:35:20.207Z,96440.84
2023-06-22T03:35:52.558Z,96446.25
2023-06-22T03:36:24.430Z,96447.78
2023-06-22T03:36:56.169Z,96449.34
2023-06-22T03:37:29.535Z,96454.34
2023-06-22T03:38:01.385Z,96451.28
2023-06-22T03:38:33.404Z,96448.59
2023-06-22T03:39:05.262Z,96437.81
2023-06-22T03:39:37.149Z,96452.09
2023-06-22T03:40:09.777Z,96448.97
2023-06-22T03:40:41.752Z,96450.50
2023-06-22T03:41:13.748Z,96451.28
2023-06-22T03:41:45.873Z,96448.97
2023-06-22T03:42:17.886Z,96453.25
2023-06-22T03:42:49.908Z,96456.34
2023-06-22T03:43:21.689Z,96447.91
2023-06-22T03:43:53.462Z,96453.34
2023-06-22T03:44:25.212Z,96452.19
2023-06-22T03:44:57.463Z,96450.25
2023-06-22T03:45:29.271Z,96454.47
2023-06-22T03:46:01.223Z,96445.53
2023-06-22T03:46:33.299Z,96450.97
2023-06-22T03:47:05.634Z,96451.75
2023-06-22T03:47:37.565Z,96449.44
2023-06-22T03:48:09.562Z,96449.03
2023-06-22T03:48:41.329Z,96446.72
2023-06-22T03:49:13.196Z,96451.75
2023-06-22T03:49:44.987Z,96448.69
2023-06-22T03:50:16.852Z,96449.84
2023-06-22T03:50:48.620Z,96454.91
2023-06-22T03:51:20.565Z,96454.13
2023-06-22T03:51:52.434Z,96447.59
2023-06-22T03:52:24.236Z,96453.00
2023-06-22T03:52:55.962Z,96453.38
2023-06-22T03:53:27.715Z,96450.34
2023-06-22T03:53:59.507Z,96446.44
2023-06-22T03:54:31.353Z,96442.56
2023-06-22T03:55:03.613Z,96446.81
2023-06-22T03:55:37.455Z,96445.25
2023-06-22T03:56:09.215Z,96442.16
2023-06-22T03:56:41.012Z,96440.25
2023-06-22T03:57:12.757Z,96429.88
2023-06-22T03:57:44.528Z,96437.25
2023-06-22T03:58:16.285Z,96436.81
2023-06-22T03:58:48.102Z,96433.75
2023-06-22T03:59:21.000Z,96443.41
2023-06-22T03:59:52.827Z,96442.66
2023-06-22T04:00:24.983Z,96439.53
2023-06-22T04:00:56.860Z,96433.78
2023-06-22T04:01:29.190Z,96436.53
2023-06-22T04:02:01.226Z,96434.22
2023-06-22T04:02:32.947Z,96438.50
2023-06-22T04:03:04.919Z,96438.56
2023-06-22T04:03:36.791Z,96438.56
2023-06-22T04:04:08.785Z,96438.56
2023-06-22T04:04:43.434Z,96444.34
2023-06-22T04:05:15.345Z,96437.81
2023-06-22T04:05:47.895Z,96441.28
2023-06-22T04:06:19.665Z,96442.03
2023-06-22T04:06:52.568Z,96438.56
2023-06-22T04:07:24.324Z,96440.91
2023-06-22T04:07:56.082Z,96447.06
2023-06-22T04:08:28.583Z,96443.56
2023-06-22T04:09:01.829Z,96444.78
2023-06-22T04:09:33.562Z,96452.13
2023-06-22T04:10:06.555Z,96445.19
2023-06-22T04:10:38.430Z,96444.06
2023-06-22T04:11:11.588Z,96446.03
2023-06-22T04:11:43.306Z,96439.09
2023-06-22T04:12:15.155Z,96443.34
2023-06-22T04:12:46.955Z,96438.69
2023-06-22T04:13:18.728Z,96439.47
2023-06-22T04:13:52.465Z,96441.00
2023-06-22T04:14:26.270Z,96438.34
2023-06-22T04:14:58.061Z,96431.00
2023-06-22T04:15:29.871Z,96436.81
2023-06-22T04:16:02.371Z,96433.75
2023-06-22T04:16:34.486Z,96443.38
2023-06-22T04:17:06.496Z,96442.63
2023-06-22T04:17:38.996Z,96445.69
2023-06-22T04:18:10.844Z,96444.56
2023-06-22T04:18:43.319Z,96452.22
2023-06-22T04:19:17.759Z,96451.81
2023-06-22T04:19:49.539Z,96444.88
2023-06-22T04:20:21.286Z,96449.16
2023-06-22T04:20:53.041Z,96442.97
2023-06-22T04:21:24.867Z,96446.47
2023-06-22T04:21:56.647Z,96443.41
2023-06-22T04:22:28.406Z,96438.78
2023-06-22T04:23:00.448Z,96448.41
2023-06-22T04:23:32.200Z,96443.00
2023-06-22T04:24:04.087Z,96448.00
2023-06-22T04:24:36.219Z,96438.75
2023-06-22T04:25:11.248Z,96434.53
2023-06-22T04:25:43.061Z,96435.31
2023-06-22T04:26:15.532Z,96439.56
2023-06-22T04:26:48.013Z,96444.94
2023-06-22T04:27:20.785Z,96451.50
2023-06-22T04:27:52.569Z,96444.19
2023-06-22T04:28:26.343Z,96446.13
2023-06-22T04:28:59.789Z,96440.72
2023-06-22T04:29:31.670Z,96443.78
2023-06-22T04:30:04.688Z,96438.72
2023-06-22T04:30:37.219Z,96439.97
2023-06-22T04:31:09.267Z,96443.81
2023-06-22T04:31:42.170Z,96446.22
2023-06-22T04:32:14.842Z,96440.41
2023-06-22T04:32:46.806Z,96433.81
2023-06-22T04:33:18.530Z,96442.34
2023-06-22T04:33:52.518Z,96435.38
2023-06-22T04:34:27.189Z,96430.75
2023-06-22T04:34:58.958Z,96430.00
2023-06-22T04:35:30.868Z,96420.25
2023-06-22T04:36:02.702Z,96429.53
2023-06-22T04:36:39.464Z,96430.69
2023-06-22T04:37:16.434Z,96423.72
2023-06-22T04:37:50.688Z,96421.44
2023-06-22T04:38:22.683Z,96428.38
2023-06-22T04:38:54.566Z,96429.16
2023-06-22T04:39:28.028Z,96427.59
2023-06-22T04:40:00.142Z,96425.63
2023-06-22T04:40:32.079Z,96430.66
2023-06-22T04:41:04.507Z,96426.84
2023-06-22T04:41:44.184Z,96429.91
2023-06-22T04:42:16.148Z,96428.38
2023-06-22T04:42:53.295Z,96429.91
2023-06-22T04:43:25.168Z,96424.13
2023-06-22T04:44:01.046Z,96424.91
2023-06-22T04:44:33.025Z,96425.28
2023-06-22T04:45:05.768Z,96425.34
2023-06-22T04:45:39.923Z,96429.16
2023-06-22T04:46:12.303Z,96428.44
2023-06-22T04:46:44.188Z,96422.25
2023-06-22T04:47:17.339Z,96430.75
2023-06-22T04:47:49.831Z,96431.91
2023-06-22T04:48:21.711Z,96420.31
2023-06-22T04:48:53.466Z,96425.34
2023-06-22T04:49:33.872Z,96424.19
2023-06-22T04:50:07.075Z,96421.88
2023-06-22T04:50:40.107Z,96424.56
2023-06-22T04:51:11.894Z,96421.84
2023-06-22T04:51:43.801Z,96423.00
2023-06-22T04:52:18.786Z,96428.03
2023-06-22T04:52:52.092Z,96429.19
2023-06-22T04:53:23.828Z,96428.81
2023-06-22T04:54:01.684Z,96432.28
2023-06-22T04:54:34.884Z,96424.88
2023-06-22T04:55:08.158Z,96424.13
2023-06-22T04:55:42.620Z,96426.44
2023-06-22T04:56:16.837Z,96427.94
2023-06-22T04:56:49.282Z,96426.78
2023-06-22T04:57:21.081Z,96421.41
2023-06-22T04:57:52.965Z,96421.78
2023-06-22T04:58:28.026Z,96422.56
2023-06-22T04:59:00.010Z,96418.31
2023-06-22T04:59:32.541Z,96418.31
2023-06-22T05:00:14.558Z,96420.66
2023-06-22T05:00:46.695Z,96420.59
2023-06-22T05:01:20.426Z,96417.47
2023-06-22T05:01:52.584Z,96418.31
2023-06-22T05:02:33.102Z,96417.56
2023-06-22T05:03:19.343Z,96414.06
2023-06-22T05:03:56.743Z,96412.91
2023-06-22T05:04:32.586Z,96408.28
2023-06-22T05:05:08.087Z,96407.94
2023-06-22T05:05:40.441Z,96405.94
2023-06-22T05:06:12.500Z,96405.19
2023-06-22T05:06:44.323Z,96406.72
2023-06-22T05:07:16.339Z,96400.91
2023-06-22T05:07:53.738Z,96405.91
2023-06-22T05:08:27.803Z,96401.31
2023-06-22T05:08:59.763Z,96402.06
2023-06-22T05:09:31.813Z,96395.84
2023-06-22T05:10:04.754Z,96387.63
2023-06-22T05:10:36.521Z,96389.63
2023-06-22T05:11:08.356Z,96388.91
2023-06-22T05:11:40.144Z,96395.50
2023-06-22T05:12:12.783Z,96399.34
2023-06-22T05:12:44.782Z,96387.72
2023-06-22T05:13:16.589Z,96388.06
2023-06-22T05:13:48.516Z,96387.72
2023-06-22T05:14:20.324Z,96388.03
2023-06-22T05:14:52.062Z,96389.31
2023-06-22T05:15:27.775Z,96383.47
2023-06-22T05:16:03.041Z,96383.47
2023-06-22T05:16:35.320Z,96386.16
2023-06-22T05:17:15.923Z,96388.81
2023-06-22T05:17:48.451Z,96397.25
2023-06-22T05:18:25.309Z,96390.25
2023-06-22T05:18:57.393Z,96395.66
2023-06-22T05:19:34.372Z,96390.19
2023-06-22T05:20:07.568Z,96399.44
2023-06-22T05:20:39.417Z,96388.72
2023-06-22T05:21:11.161Z,96393.31
2023-06-22T05:21:42.909Z,96392.06
2023-06-22T05:22:16.211Z,96392.91
2023-06-22T05:22:48.570Z,96389.06
2023-06-22T05:23:20.419Z,96393.66
2023-06-22T05:23:53.257Z,96389.25
2023-06-22T05:24:25.061Z,96388.72
2023-06-22T05:24:57.179Z,96393.53
2023-06-22T05:25:30.994Z,96396.19
2023-06-22T05:26:02.905Z,96390.66
2023-06-22T05:26:35.475Z,96390.34
2023-06-22T05:27:07.596Z,96389.72
2023-06-22T05:27:40.846Z,96391.28
2023-06-22T05:28:13.449Z,96393.53
2023-06-22T05:28:48.946Z,96387.44
2023-06-22T05:29:20.890Z,96386.69
2023-06-22T05:29:52.780Z,96378.06
2023-06-22T05:30:24.561Z,96378.69
2023-06-22T05:30:56.570Z,96375.53
2023-06-22T05:31:29.113Z,96378.94
2023-06-22T05:32:00.916Z,96371.53
2023-06-22T05:32:32.721Z,96373.91
2023-06-22T05:33:04.708Z,96364.81
2023-06-22T05:33:36.504Z,96368.28
2023-06-22T05:34:08.314Z,96368.22
2023-06-22T05:34:40.361Z,96370.28
2023-06-22T05:35:12.165Z,96363.09
2023-06-22T05:35:44.185Z,96370.25
2023-06-22T05:36:16.523Z,96368.88
2023-06-22T05:36:48.339Z,96365.81
2023-06-22T05:37:20.204Z,96371.22
2023-06-22T05:37:52.356Z,96369.44
2023-06-22T05:38:24.521Z,96365.53
2023-06-22T05:38:58.491Z,96367.38
2023-06-22T05:39:30.305Z,96362.97
2023-06-22T05:40:02.100Z,96368.63
2023-06-22T05:40:33.985Z,96366.66
2023-06-22T05:41:06.126Z,96369.28
2023-06-22T05:41:37.910Z,96369.84
2023-06-22T05:42:11.125Z,96363.06
2023-06-22T05:42:42.999Z,96366.81
2023-06-22T05:43:14.764Z,96360.38
2023-06-22T05:43:46.596Z,96372.16
2023-06-22T05:44:19.067Z,96364.44
2023-06-22T05:44:50.916Z,96366.25
2023-06-22T05:45:22.762Z,96366.88
2023-06-22T05:45:54.552Z,96366.13
2023-06-22T05:46:26.468Z,96370.81
2023-06-22T05:46:58.227Z,96371.38
2023-06-22T05:47:29.964Z,96373.09
2023-06-22T05:48:02.678Z,96367.53
2023-06-22T05:48:34.609Z,96367.84
2023-06-22T05:49:06.378Z,96374.25
2023-06-22T05:49:38.171Z,96364.81
2023-06-22T05:50:12.509Z,96364.59
2023-06-22T05:50:45.485Z,96365.66
2023-06-22T05:51:17.279Z,96367.78
2023-06-22T05:51:49.092Z,96359.34
2023-06-22T05:52:20.834Z,96369.16
2023-06-22T05:52:52.651Z,96363.81
2023-06-22T05:53:24.663Z,96362.75
2023-06-22T05:53:56.519Z,96363.84
2023-06-22T05:54:29.290Z,96364.59
2023-06-22T05:55:01.175Z,96357.72
2023-06-22T05:55:35.881Z,96359.94
2023-06-22T05:56:07.822Z,96352.56
2023-06-22T05:56:40.069Z,96354.00
2023-06-22T05:57:11.918Z,96351.56
2023-06-22T05:57:44.048Z,96349.41
2023-06-22T05:58:15.960Z,96356.81
2023-06-22T05:58:48.213Z,96350.81
2023-06-22T05:59:20.568Z,96358.06
2023-06-22T05:59:52.791Z,96357.03
2023-06-22T06:00:25.169Z,96368.06
2023-06-22T06:00:57.328Z,96365.03
2023-06-22T06:01:29.820Z,96355.41
2023-06-22T06:02:04.528Z,96359.53
2023-06-22T06:02:36.861Z,96358.50
2023-06-22T06:03:13.537Z,96359.81
2023-06-22T06:03:47.500Z,96365.69
2023-06-22T06:04:20.200Z,96369.31
2023-06-22T06:04:53.744Z,96363.78
2023-06-22T06:05:26.629Z,96359.13
2023-06-22T06:05:58.523Z,96357.81
2023-06-22T06:06:30.681Z,96364.31
2023-06-22T06:07:03.349Z,96358.69
2023-06-22T06:07:36.082Z,96360.16
2023-06-22T06:08:08.176Z,96348.47
2023-06-22T06:08:40.522Z,96350.59
2023-06-22T06:09:12.741Z,96351.91
2023-06-22T06:09:45.003Z,96351.25
2023-06-22T06:10:18.221Z,96345.69
2023-06-22T06:10:50.695Z,96343.31
2023-06-22T06:11:23.340Z,96336.84
2023-06-22T06:11:55.104Z,96341.59
2023-06-22T06:12:26.913Z,96332.94
2023-06-22T06:12:59.013Z,96332.81
2023-06-22T06:13:31.070Z,96336.13
2023-06-22T06:14:02.917Z,96335.03
2023-06-22T06:14:35.049Z,96333.91
2023-06-22T06:15:08.943Z,96330.75
2023-06-22T06:15:44.181Z,96342.06
2023-06-22T06:16:16.025Z,96331.81
2023-06-22T06:16:50.346Z,96335.13
2023-06-22T06:17:22.721Z,96338.16
2023-06-22T06:17:55.722Z,96344.16
2023-06-22T06:18:28.209Z,96336.06
2023-06-22T06:19:00.060Z,96332.28
2023-06-22T06:19:31.977Z,96323.13
2023-06-22T06:20:05.915Z,96331.25
2023-06-22T06:20:38.141Z,96326.94
2023-06-22T06:21:10.024Z,96332.88
2023-06-22T06:21:42.090Z,96331.81
2023-06-22T06:22:13.928Z,96323.72
2023-06-22T06:22:45.937Z,96333.81
2023-06-22T06:23:17.836Z,96322.41
2023-06-22T06:23:49.699Z,96321.22
2023-06-22T06:24:22.036Z,96326.91
2023-06-22T06:24:55.092Z,96328.03
2023-06-22T06:25:27.171Z,96330.28
2023-06-22T06:26:02.138Z,96331.28
2023-06-22T06:26:36.775Z,96326.53
2023-06-22T06:27:09.212Z,96328.47
2023-06-22T06:27:41.005Z,96332.63
2023-06-22T06:28:13.002Z,96329.72
2023-06-22T06:28:45.241Z,96320.31
2023-06-22T06:29:18.016Z,96328.41
2023-06-22T06:29:50.028Z,96326.03
2023-06-22T06:30:22.628Z,96326.69
2023-06-22T06:30:55.004Z,96325.50
2023-06-22T06:31:30.050Z,96333.69
2023-06-22T06:32:02.187Z,96331.84
2023-06-22T06:32:35.018Z,96333.66
2023-06-22T06:33:09.923Z,96332.78
2023-06-22T06:33:44.764Z,96326.56
2023-06-22T06:34:16.751Z,96327.69
2023-06-22T06:34:48.835Z,96320.06
2023-06-22T06:35:20.884Z,96325.50
2023-06-22T06:35:54.015Z,96327.94
2023-06-22T06:36:26.063Z,96329.44
2023-06-22T06:36:58.043Z,96320.94